Time;durP1;ratioP1;P1;durP2;ratioP2;P2;SDS_P1;SDS_P2;PMS_P1;PMS_P2;Temp;Humidity;BMP_temperature;BMP_pressure;BME280_temperature;BME280_humidity;BME280_pressure;Samples;Min_cycle;Max_cycle;Signal;HPM_P1;HPM_P2
2022/01/13 00:00:21;;;;;;;13.93;11.90;;;-0.10;99.90;;;;;;5032008;28;20198;-83
2022/01/13 00:02:51;;;;;;;15.40;11.53;;;-0.10;99.90;;;;;;5032311;28;20205;-82
2022/01/13 00:05:26;;;;;;;15.37;12.47;;;-0.10;99.90;;;;;;5032686;28;20218;-82
2022/01/13 00:07:55;;;;;;;14.30;10.97;;;-0.20;99.90;;;;;;5032953;28;20206;-83
2022/01/13 00:10:25;;;;;;;13.23;11.60;;;-0.20;99.90;;;;;;5032130;28;20226;-83
2022/01/13 00:12:58;;;;;;;18.03;10.93;;;-0.20;99.90;;;;;;5032219;28;20222;-82
2022/01/13 00:15:39;;;;;;;13.50;11.27;;;-0.20;99.90;;;;;;5032208;28;20313;-83
2022/01/13 00:18:13;;;;;;;13.80;10.83;;;-0.20;99.90;;;;;;5031897;28;20206;-83
2022/01/13 00:23:47;;;;;;;13.90;11.43;;;-0.30;99.90;;;;;;4971412;28;20207;-83
2022/01/13 00:26:19;;;;;;;12.47;10.33;;;-0.30;99.90;;;;;;4971580;28;20228;-82
2022/01/13 00:28:50;;;;;;;15.77;11.87;;;-0.30;99.90;;;;;;5001943;28;20225;-82
2022/01/13 00:31:25;;;;;;;14.03;10.93;;;-0.40;99.90;;;;;;5032515;28;20266;-82
2022/01/13 00:33:55;;;;;;;16.87;12.13;;;-0.40;99.90;;;;;;5032175;28;20230;-83
2022/01/13 00:36:25;;;;;;;18.63;12.33;;;-0.40;99.90;;;;;;5032122;28;20202;-82
2022/01/13 00:38:54;;;;;;;23.20;12.80;;;-0.30;99.90;;;;;;5031109;28;20289;-82
2022/01/13 00:41:26;;;;;;;23.93;12.73;;;-0.40;99.90;;;;;;5032224;28;20271;-82
2022/01/13 00:43:54;;;;;;;11.97;10.73;;;-0.40;99.90;;;;;;5032200;28;20226;-82
2022/01/13 00:46:27;;;;;;;12.50;11.20;;;-0.40;99.90;;;;;;5032204;28;20289;-82
2022/01/13 00:48:56;;;;;;;15.07;11.93;;;-0.40;99.90;;;;;;5031356;28;20210;-82
2022/01/13 00:51:26;;;;;;;19.23;12.23;;;-0.40;99.90;;;;;;5031934;28;20206;-82
2022/01/13 00:53:56;;;;;;;14.60;10.67;;;-0.40;99.90;;;;;;5031990;28;20309;-82
2022/01/13 00:56:24;;;;;;;13.53;11.13;;;-0.50;99.90;;;;;;5032559;28;20206;-83
2022/01/13 00:58:53;;;;;;;14.47;11.70;;;-0.50;99.90;;;;;;5031931;28;20269;-82
2022/01/13 01:01:21;;;;;;;16.03;12.10;;;-0.50;99.90;;;;;;5032025;28;20293;-82
2022/01/13 01:03:51;;;;;;;15.13;12.30;;;-0.40;99.90;;;;;;5032069;28;20222;-82
2022/01/13 01:06:20;;;;;;;14.17;11.93;;;-0.50;99.90;;;;;;5032643;28;20206;-82
2022/01/13 01:08:49;;;;;;;18.03;11.50;;;-0.50;99.90;;;;;;5031649;28;20264;-82
2022/01/13 01:11:17;;;;;;;15.13;12.43;;;-0.50;99.90;;;;;;5032321;28;20274;-82
2022/01/13 01:13:48;;;;;;;17.60;12.40;;;-0.40;99.90;;;;;;5031896;28;20301;-82
2022/01/13 01:16:18;;;;;;;15.83;12.67;;;-0.40;99.90;;;;;;5031378;28;20298;-82
2022/01/13 01:18:54;;;;;;;15.00;12.40;;;-0.30;99.90;;;;;;5031668;28;20209;-82
2022/01/13 01:21:50;;;;;;;14.30;10.90;;;-0.30;99.90;;;;;;5031951;28;20288;-82
2022/01/13 01:24:55;;;;;;;13.03;9.23;;;-0.30;99.90;;;;;;5032138;28;20227;-82
2022/01/13 01:27:25;;;;;;;17.20;10.47;;;-0.30;99.90;;;;;;5032092;28;20207;-82
2022/01/13 01:29:58;;;;;;;15.07;11.83;;;-0.20;99.90;;;;;;5033218;28;20206;-82
2022/01/13 01:32:27;;;;;;;18.50;14.03;;;-0.20;99.90;;;;;;5035700;28;20271;-82
2022/01/13 01:34:57;;;;;;;14.87;12.17;;;-0.30;99.90;;;;;;5035350;28;20230;-82
2022/01/13 01:37:29;;;;;;;17.93;14.20;;;-0.20;99.90;;;;;;5035599;28;20290;-82
2022/01/13 01:39:59;;;;;;;14.17;12.33;;;-0.30;99.90;;;;;;5034924;28;20206;-82
2022/01/13 01:42:29;;;;;;;15.70;13.13;;;-0.20;99.90;;;;;;5035668;28;20207;-82
2022/01/13 01:44:59;;;;;;;17.17;12.00;;;-0.30;99.90;;;;;;5035635;28;20257;-82
2022/01/13 01:47:29;;;;;;;19.17;13.57;;;-0.30;99.90;;;;;;5035563;28;20337;-82
2022/01/13 01:50:01;;;;;;;18.03;12.43;;;-0.30;99.90;;;;;;5034597;28;20270;-82
2022/01/13 01:52:31;;;;;;;22.10;12.70;;;-0.30;99.90;;;;;;5035325;28;20207;-82
2022/01/13 01:54:59;;;;;;;18.63;13.20;;;-0.30;99.90;;;;;;5035121;28;20234;-82
2022/01/13 01:57:28;;;;;;;19.33;12.73;;;-0.40;99.90;;;;;;5035236;28;20300;-82
2022/01/13 01:59:56;;;;;;;18.60;13.30;;;-0.40;99.90;;;;;;5034566;28;20302;-82
2022/01/13 02:02:27;;;;;;;12.03;9.83;;;-0.40;99.90;;;;;;5034888;28;20234;-82
2022/01/13 02:04:57;;;;;;;21.30;14.73;;;-0.40;99.90;;;;;;5035096;28;20227;-82
2022/01/13 02:07:25;;;;;;;17.30;13.07;;;-0.30;99.90;;;;;;5035031;28;20233;-82
2022/01/13 02:09:55;;;;;;;15.53;11.83;;;-0.30;99.90;;;;;;5034056;28;20226;-82
2022/01/13 02:12:33;;;;;;;17.63;14.63;;;-0.30;99.90;;;;;;5035038;28;20234;-82
2022/01/13 02:15:30;;;;;;;19.43;10.33;;;-0.30;99.90;;;;;;5034251;28;20241;-81
2022/01/13 02:18:02;;;;;;;14.00;11.93;;;-0.30;99.90;;;;;;5035009;28;20222;-82
2022/01/13 02:20:50;;;;;;;18.30;13.43;;;-0.30;99.90;;;;;;5034765;28;20290;-82
2022/01/13 02:23:34;;;;;;;19.53;13.57;;;-0.30;99.90;;;;;;5034580;28;20206;-82
2022/01/13 02:26:02;;;;;;;14.33;11.47;;;-0.30;99.90;;;;;;5034746;28;20241;-81
2022/01/13 02:28:31;;;;;;;16.83;12.87;;;-0.30;99.90;;;;;;5034993;28;20206;-81
2022/01/13 02:30:59;;;;;;;22.37;13.03;;;-0.30;99.90;;;;;;5034055;28;20226;-82
2022/01/13 02:33:28;;;;;;;21.17;14.00;;;-0.30;99.90;;;;;;5034615;28;20278;-82
2022/01/13 02:35:58;;;;;;;16.70;13.93;;;-0.30;99.90;;;;;;5034502;28;20234;-82
2022/01/13 02:38:27;;;;;;;23.70;15.20;;;-0.30;99.90;;;;;;5034158;28;20248;-82
2022/01/13 02:40:57;;;;;;;17.13;14.27;;;-0.20;99.90;;;;;;5033250;28;20210;-82
2022/01/13 02:43:26;;;;;;;17.93;13.23;;;-0.20;99.90;;;;;;5034365;28;20206;-82
2022/01/13 02:46:08;;;;;;;16.17;12.57;;;-0.20;99.90;;;;;;5034310;28;20217;-82
2022/01/13 02:48:37;;;;;;;19.67;15.27;;;-0.20;99.90;;;;;;5034701;28;20210;-82
2022/01/13 02:51:07;;;;;;;25.90;16.43;;;-0.20;99.90;;;;;;5034598;28;20298;-82
2022/01/13 02:53:35;;;;;;;16.70;13.93;;;-0.20;99.90;;;;;;5034294;28;20345;-82
2022/01/13 02:56:05;;;;;;;19.70;14.40;;;-0.20;99.90;;;;;;5034603;28;20289;-82
2022/01/13 02:58:35;;;;;;;16.53;13.00;;;-0.20;99.90;;;;;;5033721;28;20233;-81
2022/01/13 03:01:05;;;;;;;20.90;15.00;;;-0.20;99.90;;;;;;5033695;28;20265;-82
2022/01/13 03:03:35;;;;;;;19.50;13.73;;;-0.20;99.90;;;;;;5033875;28;20214;-82
2022/01/13 03:06:10;;;;;;;15.57;13.47;;;-0.20;99.90;;;;;;5034273;28;20262;-82
2022/01/13 03:08:39;;;;;;;16.03;11.97;;;-0.20;99.90;;;;;;5033889;28;20210;-82
2022/01/13 03:11:08;;;;;;;16.40;13.83;;;-0.20;99.90;;;;;;5033827;28;20336;-82
2022/01/13 03:13:36;;;;;;;15.53;12.23;;;-0.20;99.90;;;;;;5034041;28;20210;-82
2022/01/13 03:16:09;;;;;;;16.53;13.07;;;-0.20;99.90;;;;;;5033440;28;20326;-82
2022/01/13 03:18:38;;;;;;;17.77;13.50;;;-0.20;99.90;;;;;;5033487;28;20225;-82
2022/01/13 03:21:09;;;;;;;15.07;13.23;;;-0.10;99.90;;;;;;5033257;28;20301;-82
2022/01/13 03:23:37;;;;;;;22.43;14.53;;;-0.10;99.90;;;;;;5033742;28;20245;-82
2022/01/13 03:26:06;;;;;;;12.93;10.87;;;-0.10;99.90;;;;;;5033306;28;20233;-82
2022/01/13 03:28:40;;;;;;;16.07;13.40;;;0.00;99.90;;;;;;5033630;28;20297;-82
2022/01/13 03:31:09;;;;;;;14.60;13.03;;;-0.10;99.90;;;;;;5033573;28;20206;-82
2022/01/13 03:33:37;;;;;;;16.00;12.63;;;-0.10;99.90;;;;;;5033458;28;20202;-82
2022/01/13 03:36:06;;;;;;;14.90;12.70;;;-0.10;99.90;;;;;;5032823;28;20241;-81
2022/01/13 03:38:36;;;;;;;16.40;12.67;;;-0.10;99.90;;;;;;5033106;28;20210;-81
2022/01/13 03:41:04;;;;;;;20.60;13.83;;;-0.10;99.90;;;;;;5033320;28;20269;-82
2022/01/13 03:43:35;;;;;;;18.67;13.77;;;-0.10;99.90;;;;;;5033497;28;20230;-82
2022/01/13 03:46:04;;;;;;;19.07;13.77;;;-0.10;99.90;;;;;;5033066;28;20293;-82
2022/01/13 03:48:33;;;;;;;14.27;11.30;;;-0.10;99.90;;;;;;5032888;28;20202;-82
2022/01/13 03:51:01;;;;;;;15.57;11.70;;;0.00;99.90;;;;;;5032483;28;20286;-82
2022/01/13 03:54:08;;;;;;;15.37;11.87;;;-0.10;99.90;;;;;;5032251;28;20207;-82
2022/01/13 03:57:27;;;;;;;17.07;12.03;;;0.00;99.90;;;;;;5008244;28;20205;-81
2022/01/13 04:00:41;;;;;;;14.27;12.10;;;0.00;99.90;;;;;;5021595;28;20289;-82
2022/01/13 04:03:11;;;;;;;11.67;10.17;;;0.00;99.90;;;;;;5032796;28;20216;-82
2022/01/13 04:06:02;;;;;;;18.37;13.77;;;0.10;99.90;;;;;;5032606;28;20237;-82
2022/01/13 04:08:30;;;;;;;20.00;14.40;;;0.10;99.90;;;;;;5032949;28;20293;-82
2022/01/13 04:11:22;;;;;;;17.40;12.60;;;0.10;99.90;;;;;;5032411;28;20293;-82
2022/01/13 04:13:56;;;;;;;14.73;12.20;;;0.10;99.90;;;;;;5032942;28;20272;-82
2022/01/13 04:16:27;;;;;;;17.37;13.03;;;0.20;99.90;;;;;;5031727;28;20230;-82
2022/01/13 04:19:00;;;;;;;16.33;12.20;;;0.20;99.90;;;;;;5032274;28;20213;-82
2022/01/13 04:21:29;;;;;;;16.20;12.60;;;0.20;99.90;;;;;;5032681;28;20238;-82
2022/01/13 04:23:57;;;;;;;14.97;11.60;;;0.20;99.90;;;;;;5032306;28;20294;-82
2022/01/13 04:26:29;;;;;;;17.23;12.73;;;0.20;99.90;;;;;;5033095;28;20252;-82
2022/01/13 04:29:15;;;;;;;14.63;12.47;;;0.20;99.90;;;;;;5032118;28;20210;-82
2022/01/13 04:31:46;;;;;;;20.80;13.13;;;0.20;99.90;;;;;;5031842;28;20202;-82
2022/01/13 04:34:16;;;;;;;14.77;12.23;;;0.20;99.90;;;;;;5032533;28;20230;-82
2022/01/13 04:36:45;;;;;;;17.53;12.43;;;0.20;99.90;;;;;;5032343;28;20222;-82
2022/01/13 04:39:15;;;;;;;17.10;13.23;;;0.20;99.90;;;;;;5031717;28;20265;-82
2022/01/13 04:41:45;;;;;;;11.40;10.17;;;0.20;99.90;;;;;;5032199;28;20245;-82
2022/01/13 04:44:15;;;;;;;14.03;9.97;;;0.10;99.90;;;;;;5032290;28;20253;-81
2022/01/13 04:46:45;;;;;;;13.17;11.77;;;0.10;99.90;;;;;;5032393;28;20202;-81
2022/01/13 04:49:13;;;;;;;15.77;12.47;;;0.10;99.90;;;;;;5031768;28;20304;-82
2022/01/13 04:51:43;;;;;;;15.07;12.37;;;0.10;99.90;;;;;;5032332;28;20210;-82
2022/01/13 04:54:11;;;;;;;17.23;13.63;;;0.10;99.90;;;;;;5032128;28;20257;-82
2022/01/13 04:56:43;;;;;;;16.23;12.37;;;0.10;99.90;;;;;;5031953;28;20222;-81
2022/01/13 04:59:12;;;;;;;20.23;12.60;;;0.10;99.90;;;;;;5031794;28;20206;-82
2022/01/13 05:01:41;;;;;;;18.57;13.40;;;0.10;99.90;;;;;;5032218;28;20289;-81
2022/01/13 05:04:10;;;;;;;17.80;12.47;;;0.20;99.90;;;;;;5033115;28;20234;-81
2022/01/13 05:06:39;;;;;;;15.70;12.43;;;0.20;99.90;;;;;;5036126;28;20289;-81
2022/01/13 05:09:08;;;;;;;15.50;12.43;;;0.20;99.90;;;;;;5035521;28;20198;-82
2022/01/13 05:11:37;;;;;;;17.77;12.97;;;0.30;99.90;;;;;;5035799;28;20285;-82
2022/01/13 05:14:05;;;;;;;23.73;13.37;;;0.30;99.90;;;;;;5035966;28;20230;-82
2022/01/13 05:16:48;;;;;;;17.33;13.33;;;0.20;99.90;;;;;;5034760;28;20298;-81
2022/01/13 05:19:21;;;;;;;15.93;12.03;;;0.20;99.90;;;;;;5035654;28;20202;-81
2022/01/13 05:22:15;;;;;;;19.50;10.83;;;0.20;99.90;;;;;;5035747;28;20218;-81
2022/01/13 05:24:49;;;;;;;23.20;11.37;;;0.10;99.90;;;;;;5035324;28;20294;-81
2022/01/13 05:27:19;;;;;;;13.60;10.50;;;0.10;99.90;;;;;;5035696;28;20221;-81
2022/01/13 05:29:47;;;;;;;14.80;11.67;;;0.10;99.90;;;;;;5035052;28;20260;-81
2022/01/13 05:32:18;;;;;;;15.43;12.20;;;0.10;99.90;;;;;;5035709;28;20218;-81
2022/01/13 05:34:47;;;;;;;15.03;11.80;;;0.10;99.90;;;;;;5035527;28;20224;-81
2022/01/13 05:37:15;;;;;;;15.63;12.80;;;0.10;99.90;;;;;;5035245;28;20246;-82
2022/01/13 05:39:45;;;;;;;13.33;11.93;;;0.10;99.90;;;;;;5038499;28;20253;-82
2022/01/13 05:42:14;;;;;;;21.73;14.47;;;0.10;99.90;;;;;;5035928;28;20297;-87
2022/01/13 05:44:42;;;;;;;15.87;12.27;;;0.10;99.90;;;;;;5053401;28;20291;-81
2022/01/13 05:47:12;;;;;;;15.20;12.60;;;0.10;99.90;;;;;;5035926;28;20278;-80
2022/01/13 05:49:42;;;;;;;15.17;12.40;;;0.10;99.90;;;;;;5035484;28;20294;-81
2022/01/13 05:52:13;;;;;;;17.30;13.17;;;0.10;99.90;;;;;;5021683;28;20203;-81
2022/01/13 05:54:41;;;;;;;21.60;14.50;;;0.10;99.90;;;;;;5030109;28;20234;-81
2022/01/13 05:57:12;;;;;;;21.23;13.63;;;0.10;99.90;;;;;;5035491;28;20310;-81
2022/01/13 05:59:42;;;;;;;17.90;14.20;;;0.10;99.90;;;;;;5031587;28;20229;-81
2022/01/13 06:02:11;;;;;;;19.17;14.07;;;0.10;99.90;;;;;;5016300;28;20219;-80
2022/01/13 06:04:40;;;;;;;18.20;13.77;;;0.10;99.90;;;;;;5032476;28;20218;-80
2022/01/13 06:07:08;;;;;;;21.17;14.20;;;0.10;99.90;;;;;;5034898;28;20253;-80
2022/01/13 06:09:36;;;;;;;16.77;13.57;;;0.10;99.90;;;;;;5020653;28;20199;-80
2022/01/13 06:12:05;;;;;;;16.93;12.97;;;0.10;99.90;;;;;;5031622;28;20290;-80
2022/01/13 06:14:35;;;;;;;19.23;14.23;;;0.10;99.90;;;;;;5025852;28;20249;-81
2022/01/13 06:17:04;;;;;;;20.90;14.97;;;0.10;99.90;;;;;;5033306;28;20230;-80
2022/01/13 06:19:32;;;;;;;21.00;14.33;;;0.10;99.90;;;;;;5034230;28;20267;-80
2022/01/13 06:22:01;;;;;;;23.90;15.70;;;0.10;99.90;;;;;;5040210;28;20248;-81
2022/01/13 06:24:29;;;;;;;23.17;14.70;;;0.20;99.90;;;;;;5054097;28;20281;-81
2022/01/13 06:26:57;;;;;;;16.40;14.57;;;0.10;99.90;;;;;;5052642;28;20281;-80
2022/01/13 06:29:25;;;;;;;21.77;15.37;;;0.10;99.90;;;;;;5035159;28;20210;-81
2022/01/13 06:31:56;;;;;;;16.20;13.43;;;0.20;99.90;;;;;;5052347;28;20300;-81
2022/01/13 06:34:24;;;;;;;18.17;13.80;;;0.20;99.90;;;;;;5054551;28;20230;-81
2022/01/13 06:36:53;;;;;;;17.67;13.67;;;0.20;99.90;;;;;;5032031;28;20242;-81
2022/01/13 06:39:21;;;;;;;21.60;16.03;;;0.20;99.90;;;;;;5035906;28;20294;-80
2022/01/13 06:41:49;;;;;;;20.07;15.17;;;0.20;99.90;;;;;;5035168;28;20285;-81
2022/01/13 06:44:18;;;;;;;17.30;14.23;;;0.20;99.90;;;;;;5038668;28;20230;-81
2022/01/13 06:46:46;;;;;;;20.43;14.47;;;0.20;99.90;;;;;;5035497;28;20275;-81
2022/01/13 06:49:16;;;;;;;25.00;15.10;;;0.20;99.90;;;;;;5040884;28;20205;-81
2022/01/13 06:51:44;;;;;;;20.20;15.43;;;0.20;99.90;;;;;;5055256;28;20306;-81
2022/01/13 06:54:12;;;;;;;16.10;13.23;;;0.30;99.90;;;;;;5044499;28;20330;-81
2022/01/13 06:56:41;;;;;;;12.40;10.23;;;0.20;99.90;;;;;;5037821;28;20222;-80
2022/01/13 06:59:11;;;;;;;19.53;14.67;;;0.20;99.90;;;;;;5033980;28;20237;-81
2022/01/13 07:01:50;;;;;;;17.97;13.70;;;0.20;99.90;;;;;;5036683;28;20252;-87
2022/01/13 07:04:21;;;;;;;18.07;14.67;;;0.30;99.90;;;;;;5044429;28;20230;-87
2022/01/13 07:06:50;;;;;;;20.57;16.20;;;0.20;99.90;;;;;;5035077;28;20224;-85
2022/01/13 07:09:18;;;;;;;19.77;14.80;;;0.20;99.90;;;;;;5035357;28;20202;-84
2022/01/13 07:11:47;;;;;;;19.87;14.97;;;0.30;99.90;;;;;;5040439;28;20191;-83
2022/01/13 07:14:16;;;;;;;16.67;13.07;;;0.30;99.90;;;;;;5034864;28;20245;-83
2022/01/13 07:16:46;;;;;;;20.40;15.73;;;0.30;99.90;;;;;;5029650;28;20238;-84
2022/01/13 07:19:15;;;;;;;21.50;15.57;;;0.40;99.90;;;;;;5023910;28;20210;-84
2022/01/13 07:21:47;;;;;;;18.93;14.30;;;0.40;99.90;;;;;;5036199;28;20245;-83
2022/01/13 07:24:17;;;;;;;20.73;16.10;;;0.40;99.90;;;;;;5031169;28;20222;-84
2022/01/13 07:26:45;;;;;;;18.23;14.27;;;0.40;99.90;;;;;;5034486;28;20217;-84
2022/01/13 07:29:14;;;;;;;22.63;15.00;;;0.40;99.90;;;;;;5028147;28;20214;-82
2022/01/13 07:31:50;;;;;;;19.90;15.33;;;0.40;99.90;;;;;;5033362;28;20198;-82
2022/01/13 07:34:18;;;;;;;21.17;15.27;;;0.40;99.90;;;;;;5034211;28;20294;-83
2022/01/13 07:36:48;;;;;;;17.23;13.63;;;0.40;99.90;;;;;;5033555;28;20214;-83
2022/01/13 07:39:17;;;;;;;20.37;14.67;;;0.40;99.90;;;;;;5033757;28;20202;-84
2022/01/13 07:41:45;;;;;;;15.43;12.70;;;0.40;99.90;;;;;;5034258;28;20211;-84
2022/01/13 07:44:18;;;;;;;20.13;13.90;;;0.40;99.90;;;;;;5036520;28;20222;-83
2022/01/13 07:46:46;;;;;;;16.93;13.53;;;0.40;99.90;;;;;;5037469;28;20229;-85
2022/01/13 07:49:15;;;;;;;17.53;13.67;;;0.40;99.90;;;;;;5032235;28;20277;-85
2022/01/13 07:51:43;;;;;;;21.80;14.53;;;0.30;99.90;;;;;;5035342;28;20226;-84
2022/01/13 07:54:13;;;;;;;23.07;15.70;;;0.30;99.90;;;;;;5044127;28;20226;-85
2022/01/13 07:56:42;;;;;;;19.53;14.60;;;0.30;99.90;;;;;;5024373;28;20246;-85
2022/01/13 07:59:10;;;;;;;22.33;14.83;;;0.30;99.90;;;;;;5042977;28;20191;-86
2022/01/13 08:01:39;;;;;;;19.87;14.70;;;0.30;99.90;;;;;;5032987;28;20202;-85
2022/01/13 08:04:07;;;;;;;16.13;12.63;;;0.20;99.90;;;;;;5049499;28;20225;-86
2022/01/13 08:06:35;;;;;;;18.20;13.87;;;0.30;99.90;;;;;;5051037;28;20340;-85
2022/01/13 08:09:04;;;;;;;16.53;13.20;;;0.30;99.90;;;;;;5039341;28;20253;-84
2022/01/13 08:11:34;;;;;;;21.40;14.03;;;0.30;99.90;;;;;;5032477;28;20202;-86
2022/01/13 08:14:02;;;;;;;23.37;13.30;;;0.30;99.90;;;;;;5032799;28;20305;-85
2022/01/13 08:16:34;;;;;;;15.73;12.90;;;0.30;99.90;;;;;;5033593;28;20234;-84
2022/01/13 08:21:48;;;;;;;18.27;13.23;;;0.30;99.90;;;;;;5028390;28;20201;-85
2022/01/13 08:24:17;;;;;;;20.33;13.00;;;0.20;99.90;;;;;;5032145;28;20250;-84
2022/01/13 08:26:47;;;;;;;29.87;15.43;;;0.20;99.90;;;;;;5030956;28;20311;-84
2022/01/13 08:29:15;;;;;;;21.63;14.30;;;0.20;99.90;;;;;;5033369;28;20203;-85
2022/01/13 08:31:45;;;;;;;14.83;12.00;;;0.20;99.90;;;;;;5052629;28;20214;-85
2022/01/13 08:34:15;;;;;;;19.37;12.83;;;0.30;99.90;;;;;;5039843;28;20245;-85
2022/01/13 08:36:44;;;;;;;19.00;13.87;;;0.30;99.90;;;;;;5034579;28;20263;-85
2022/01/13 08:39:13;;;;;;;21.87;13.37;;;0.30;99.90;;;;;;5036917;28;20210;-85
2022/01/13 08:41:43;;;;;;;12.40;11.13;;;0.30;99.90;;;;;;5033154;28;20206;-85
2022/01/13 08:44:13;;;;;;;16.77;13.57;;;0.40;99.90;;;;;;5035424;28;20222;-84
2022/01/13 08:46:41;;;;;;;17.20;13.30;;;0.40;99.90;;;;;;5052351;28;20292;-85
2022/01/13 08:49:10;;;;;;;13.13;10.97;;;0.40;99.90;;;;;;5037233;28;20206;-85
2022/01/13 08:51:39;;;;;;;15.10;11.33;;;0.50;99.90;;;;;;5032428;28;20264;-85
2022/01/13 08:54:07;;;;;;;12.90;11.50;;;0.60;99.90;;;;;;5032086;28;20294;-84
2022/01/13 08:56:36;;;;;;;10.30;8.93;;;0.60;99.90;;;;;;5046997;28;20245;-86
2022/01/13 08:59:04;;;;;;;13.80;10.40;;;0.70;99.90;;;;;;5049835;28;20269;-85
2022/01/13 09:01:34;;;;;;;11.70;10.50;;;0.80;99.90;;;;;;5050283;28;20218;-85
2022/01/13 09:04:03;;;;;;;12.93;10.57;;;0.90;99.90;;;;;;5049721;28;20226;-85
2022/01/13 09:06:34;;;;;;;11.20;9.83;;;0.90;99.90;;;;;;5037708;28;20282;-84
2022/01/13 09:09:02;;;;;;;28.57;10.20;;;1.00;99.90;;;;;;5041921;28;20206;-85
2022/01/13 09:11:30;;;;;;;11.47;9.83;;;1.00;99.90;;;;;;5032040;28;20203;-85
2022/01/13 09:13:59;;;;;;;13.63;10.93;;;1.00;99.90;;;;;;5031498;28;20268;-84
2022/01/13 09:16:30;;;;;;;9.90;8.90;;;1.10;99.90;;;;;;5031911;28;20305;-85
2022/01/13 09:19:08;;;;;;;14.43;10.43;;;1.20;99.90;;;;;;5035059;28;20348;-85
2022/01/13 09:21:38;;;;;;;11.10;8.77;;;1.30;99.90;;;;;;5048994;28;20257;-84
2022/01/13 09:24:09;;;;;;;11.57;9.73;;;1.30;99.90;;;;;;5029395;28;20277;-84
2022/01/13 09:26:38;;;;;;;9.00;8.10;;;1.40;99.90;;;;;;5031593;28;20195;-85
2022/01/13 09:29:07;;;;;;;10.87;9.23;;;1.50;99.90;;;;;;5029493;28;20214;-85
2022/01/13 09:31:37;;;;;;;11.37;9.20;;;1.50;99.90;;;;;;5031743;28;20206;-85
2022/01/13 09:34:09;;;;;;;13.23;9.70;;;1.60;99.90;;;;;;5042544;28;20217;-94
2022/01/13 09:36:37;;;;;;;10.50;9.10;;;1.60;99.90;;;;;;5039429;28;20194;-85
2022/01/13 09:39:08;;;;;;;10.80;8.97;;;1.60;99.90;;;;;;5032041;28;20215;-85
2022/01/13 09:41:37;;;;;;;13.43;8.97;;;1.70;99.90;;;;;;5032337;28;20208;-85
2022/01/13 09:44:06;;;;;;;13.30;9.70;;;1.80;99.90;;;;;;5038684;28;20257;-85
2022/01/13 09:46:35;;;;;;;7.83;7.00;;;2.00;99.90;;;;;;5032043;28;20285;-85
2022/01/13 09:49:08;;;;;;;12.10;9.10;;;2.10;99.90;;;;;;5031873;28;20205;-86
2022/01/13 09:51:44;;;;;;;10.63;8.77;;;2.20;99.90;;;;;;5053044;28;20229;-86
2022/01/13 09:54:14;;;;;;;8.80;6.85;;;2.30;99.90;;;;;;5048416;28;20233;-85
2022/01/13 09:56:42;;;;;;;11.53;8.73;;;2.40;99.90;;;;;;5048455;28;20237;-86
2022/01/13 09:59:10;;;;;;;8.37;7.50;;;2.50;99.90;;;;;;5034721;28;20254;-85
2022/01/13 10:01:39;;;;;;;8.73;7.30;;;2.50;99.90;;;;;;5034842;28;20245;-85
2022/01/13 10:04:09;;;;;;;14.40;9.10;;;2.80;99.90;;;;;;5035254;28;20309;-85
2022/01/13 10:06:47;;;;;;;9.07;8.17;;;2.70;99.90;;;;;;5036213;28;20278;-85
2022/01/13 10:09:16;;;;;;;7.93;6.27;;;2.80;99.90;;;;;;5053871;28;20205;-85
2022/01/13 10:11:54;;;;;;;8.90;6.80;;;2.90;99.90;;;;;;5035028;28;20229;-85
2022/01/13 10:17:23;;;;;;;8.83;7.00;;;2.90;99.90;;;;;;4974221;28;20305;-85
2022/01/13 10:19:57;;;;;;;10.55;6.82;;;2.90;99.90;;;;;;5028870;28;20304;-85
2022/01/13 10:22:33;;;;;;;8.82;6.78;;;3.00;99.90;;;;;;5055168;28;20224;-85
2022/01/13 10:25:01;;;;;;;9.93;8.05;;;3.10;99.90;;;;;;5044339;28;20309;-85
2022/01/13 10:27:31;;;;;;;7.77;6.97;;;3.30;99.90;;;;;;5034471;28;20290;-85
2022/01/13 10:30:02;;;;;;;9.05;7.82;;;3.50;99.90;;;;;;5043107;28;20292;-86
2022/01/13 10:32:34;;;;;;;10.82;7.78;;;3.80;99.90;;;;;;5044482;28;20220;-84
2022/01/13 10:35:06;;;;;;;9.40;7.55;;;3.90;99.90;;;;;;5034263;28;20258;-87
2022/01/13 10:37:36;;;;;;;7.25;6.45;;;4.10;99.90;;;;;;5034985;28;20225;-87
2022/01/13 10:40:09;;;;;;;7.80;7.00;;;4.30;99.90;;;;;;5032997;28;20284;-87
2022/01/13 10:43:07;;;;;;;8.45;7.50;;;4.50;99.90;;;;;;5040876;28;20194;-88
2022/01/13 10:45:38;;;;;;;7.95;7.03;;;4.40;99.90;;;;;;5054169;28;20317;-87
2022/01/13 10:48:10;;;;;;;9.60;6.65;;;4.30;99.90;;;;;;5053469;28;20230;-87
2022/01/13 10:50:43;;;;;;;7.75;6.95;;;4.30;99.90;;;;;;5051820;28;20214;-87
2022/01/13 10:53:13;;;;;;;7.53;6.57;;;4.50;99.90;;;;;;5053906;28;20236;-87
2022/01/13 10:55:45;;;;;;;7.63;6.45;;;4.20;99.90;;;;;;5038249;28;20233;-87
2022/01/13 10:58:16;;;;;;;11.20;7.15;;;4.20;99.90;;;;;;5044517;28;20222;-88
2022/01/13 11:00:46;;;;;;;6.78;6.18;;;4.10;99.90;;;;;;5033697;28;20234;-87
2022/01/13 11:03:18;;;;;;;7.95;6.50;;;3.90;99.90;;;;;;5033420;28;20255;-89
2022/01/13 11:05:49;;;;;;;9.15;6.72;;;3.80;99.90;;;;;;5014136;28;20261;-85
2022/01/13 11:08:30;;;;;;;11.10;7.07;;;3.80;99.90;;;;;;5013575;28;20207;-85
2022/01/13 11:11:01;;;;;;;7.90;6.88;;;3.80;99.90;;;;;;5013872;28;20263;-84
2022/01/13 11:13:35;;;;;;;9.27;7.05;;;3.90;99.90;;;;;;5013830;28;20207;-85
2022/01/13 11:16:04;;;;;;;7.18;5.63;;;3.80;99.90;;;;;;5014138;28;20226;-85
2022/01/13 11:18:34;;;;;;;9.48;6.97;;;3.70;99.90;;;;;;5013414;28;20221;-85
2022/01/13 11:21:04;;;;;;;9.43;6.40;;;3.70;99.90;;;;;;5013530;28;20289;-84
2022/01/13 11:23:33;;;;;;;7.13;6.30;;;3.90;99.90;;;;;;5012327;28;20211;-85
2022/01/13 11:26:02;;;;;;;6.80;5.75;;;4.00;99.90;;;;;;5013801;28;20253;-85
2022/01/13 11:28:30;;;;;;;4.90;4.43;;;4.10;99.90;;;;;;5013664;28;20219;-85
2022/01/13 11:31:00;;;;;;;6.78;5.95;;;4.30;99.90;;;;;;5013095;28;20294;-85
2022/01/13 11:33:28;;;;;;;6.13;5.53;;;4.30;99.90;;;;;;5013563;28;20257;-84
2022/01/13 11:35:57;;;;;;;9.00;5.90;;;4.50;99.90;;;;;;5013320;28;20294;-85
2022/01/13 11:38:29;;;;;;;6.47;5.85;;;4.70;99.90;;;;;;5013388;28;20211;-85
2022/01/13 11:41:02;;;;;;;5.30;3.92;;;4.70;99.90;;;;;;5013211;28;20221;-85
2022/01/13 11:43:34;;;;;;;10.98;6.57;;;4.80;99.90;;;;;;5013642;28;20280;-85
2022/01/13 11:46:19;;;;;;;6.90;6.03;;;5.10;99.90;;;;;;5013520;28;20202;-85
2022/01/13 11:48:57;;;;;;;5.85;5.25;;;5.50;99.90;;;;;;5012561;28;20203;-84
2022/01/13 11:51:28;;;;;;;6.13;5.30;;;5.60;99.90;;;;;;5013572;28;20285;-84
2022/01/13 11:54:05;;;;;;;7.13;5.75;;;5.20;99.90;;;;;;5013420;28;20234;-85
2022/01/13 11:57:23;;;;;;;6.88;4.88;;;5.10;99.90;;;;;;5013292;28;20303;-85
2022/01/13 12:00:20;;;;;;;7.38;5.13;;;5.20;99.90;;;;;;5012429;28;20315;-85
2022/01/13 12:02:48;;;;;;;6.38;5.65;;;5.20;99.90;;;;;;5013480;28;20282;-84
2022/01/13 12:05:20;;;;;;;6.72;5.38;;;5.30;99.90;;;;;;5012773;28;20286;-85
2022/01/13 12:07:50;;;;;;;7.60;5.65;;;5.20;99.90;;;;;;5013519;28;20203;-85
2022/01/13 12:10:51;;;;;;;7.75;5.00;;;4.90;99.90;;;;;;5012386;28;20230;-85
2022/01/13 12:13:41;;;;;;;7.35;5.80;;;4.90;99.90;;;;;;5012733;28;20227;-85
2022/01/13 12:16:11;;;;;;;7.65;5.78;;;4.90;99.90;;;;;;5012526;28;20271;-85
2022/01/13 12:19:09;;;;;;;6.68;4.75;;;4.90;99.90;;;;;;5012412;28;20210;-85
2022/01/13 12:21:44;;;;;;;9.32;6.45;;;4.80;99.90;;;;;;5013376;28;20211;-85
2022/01/13 12:24:19;;;;;;;5.05;4.45;;;4.70;99.90;;;;;;5011723;28;20261;-84
2022/01/13 12:26:56;;;;;;;5.50;4.97;;;4.90;99.90;;;;;;5012646;28;20221;-85
2022/01/13 12:29:27;;;;;;;8.05;5.22;;;4.80;99.90;;;;;;5012376;28;20226;-85
2022/01/13 12:31:59;;;;;;;6.10;5.07;;;4.80;99.90;;;;;;5012865;28;20207;-85
2022/01/13 12:34:48;;;;;;;4.18;3.83;;;4.80;99.90;;;;;;5013153;28;20257;-84
2022/01/13 12:37:23;;;;;;;5.45;4.95;;;4.80;99.90;;;;;;5012549;28;20227;-85
2022/01/13 12:39:57;;;;;;;5.80;5.22;;;4.70;99.90;;;;;;5011969;28;20274;-84
2022/01/13 12:42:36;;;;;;;9.15;5.38;;;4.60;99.90;;;;;;5012800;28;20214;-84
2022/01/13 12:47:59;;;;;;;8.60;5.82;;;4.60;99.90;;;;;;5012536;28;20273;-85
2022/01/13 12:50:29;;;;;;;9.15;5.90;;;4.60;99.90;;;;;;5012233;28;20265;-85
2022/01/13 12:53:07;;;;;;;7.10;5.47;;;4.70;99.90;;;;;;5012578;28;20211;-85
2022/01/13 12:55:38;;;;;;;5.75;5.22;;;4.80;99.90;;;;;;5012389;28;20239;-85
2022/01/13 12:58:09;;;;;;;6.57;5.30;;;4.90;99.90;;;;;;5012364;28;20215;-85
2022/01/13 13:00:59;;;;;;;6.40;4.95;;;5.00;99.90;;;;;;5011806;28;20222;-85
2022/01/13 13:03:27;;;;;;;5.70;5.20;;;5.20;99.90;;;;;;5012562;28;20261;-85
2022/01/13 13:05:56;;;;;;;6.80;4.97;;;5.20;99.90;;;;;;5012382;28;20303;-84
2022/01/13 13:08:28;;;;;;;8.57;5.22;;;5.10;99.90;;;;;;5012452;28;20258;-84
2022/01/13 13:11:43;;;;;;;10.02;5.00;;;5.10;99.90;;;;;;5012519;28;20255;-85
2022/01/13 13:17:56;;;;;;;4.50;3.72;;;5.10;99.90;;;;;;5012126;28;20218;-85